createdAt,value
2018-05-12T00:01:32.151Z,12.77
2018-05-12T00:04:01.268Z,10.43
2018-05-12T00:06:30.307Z,13.23
2018-05-12T00:09:00.529Z,16.90
2018-05-12T00:11:29.789Z,13.53
2018-05-12T00:13:59.525Z,20.30
2018-05-12T00:16:28.603Z,13.00
2018-05-12T00:18:57.723Z,11.83
2018-05-12T00:21:27.520Z,8.07
2018-05-12T00:23:56.574Z,12.70
2018-05-12T00:26:25.644Z,16.73
2018-05-12T00:28:54.736Z,15.10
2018-05-12T00:31:23.708Z,10.57
2018-05-12T00:33:53.546Z,17.63
2018-05-12T00:36:22.849Z,15.53
2018-05-12T00:38:51.992Z,15.80
2018-05-12T00:41:21.109Z,22.60
2018-05-12T00:43:50.524Z,17.13
2018-05-12T00:46:19.645Z,16.00
2018-05-12T00:48:48.597Z,17.57
2018-05-12T00:51:18.193Z,17.73
2018-05-12T00:53:47.368Z,13.00
2018-05-12T00:56:16.837Z,15.80
2018-05-12T00:58:45.835Z,15.10
2018-05-12T01:01:14.999Z,17.87
2018-05-12T01:03:44.271Z,16.33
2018-05-12T01:06:13.279Z,15.67
2018-05-12T01:08:42.654Z,19.53
2018-05-12T01:11:11.884Z,15.50
2018-05-12T01:13:41.079Z,14.40
2018-05-12T01:16:10.225Z,15.90
2018-05-12T01:18:39.553Z,17.13
2018-05-12T01:21:08.732Z,15.17
2018-05-12T01:23:37.949Z,13.77
2018-05-12T01:26:07.020Z,16.27
2018-05-12T01:28:36.461Z,14.23
2018-05-12T01:31:06.058Z,12.23
2018-05-12T01:33:35.358Z,16.37
2018-05-12T01:36:04.520Z,11.77
2018-05-12T01:38:33.524Z,13.30
2018-05-12T01:41:03.303Z,14.20
2018-05-12T01:43:32.766Z,15.50
2018-05-12T01:46:01.870Z,15.47
2018-05-12T01:48:31.065Z,13.70
2018-05-12T01:51:00.514Z,11.10
2018-05-12T01:53:29.476Z,14.87
2018-05-12T01:55:58.658Z,15.23
2018-05-12T01:58:27.975Z,13.17
2018-05-12T02:00:57.031Z,11.77
2018-05-12T02:03:26.328Z,7.57
2018-05-12T02:05:55.307Z,14.13
2018-05-12T02:08:24.444Z,11.73
2018-05-12T02:10:53.709Z,11.30
2018-05-12T02:13:23.071Z,12.20
2018-05-12T02:15:52.287Z,12.07
2018-05-12T02:18:21.245Z,9.43
2018-05-12T02:20:50.642Z,14.90
2018-05-12T02:23:19.715Z,13.83
2018-05-12T02:25:48.872Z,11.67
2018-05-12T02:28:18.182Z,12.13
2018-05-12T02:30:47.416Z,9.67
2018-05-12T02:33:16.532Z,14.67
2018-05-12T02:35:45.708Z,15.87
2018-05-12T02:38:14.903Z,14.10
2018-05-12T02:40:44.337Z,8.20
2018-05-12T02:43:13.437Z,13.47
2018-05-12T02:45:42.661Z,15.33
2018-05-12T02:48:11.754Z,9.93
2018-05-12T02:50:40.855Z,11.27
2018-05-12T02:53:10.033Z,14.77
2018-05-12T02:55:38.996Z,20.20
2018-05-12T02:58:08.060Z,12.47
2018-05-12T03:00:37.571Z,9.27
2018-05-12T03:03:06.655Z,14.80
2018-05-12T03:05:35.687Z,10.43
2018-05-12T03:08:05.207Z,14.50
2018-05-12T03:10:34.284Z,9.87
2018-05-12T03:13:03.442Z,13.27
2018-05-12T03:15:32.913Z,8.70
2018-05-12T03:18:01.925Z,11.57
2018-05-12T03:20:30.963Z,15.40
2018-05-12T03:23:00.101Z,12.57
2018-05-12T03:25:29.393Z,7.33
2018-05-12T03:27:58.644Z,12.70
2018-05-12T03:30:27.945Z,12.23
2018-05-12T03:32:58.027Z,12.53
2018-05-12T03:35:27.013Z,13.37
2018-05-12T03:37:56.054Z,9.83
2018-05-12T03:40:25.172Z,12.20
2018-05-12T03:42:54.281Z,8.73
2018-05-12T03:45:23.368Z,7.00
2018-05-12T03:47:52.601Z,13.90
2018-05-12T03:50:22.054Z,10.07
2018-05-12T03:52:52.213Z,11.00
2018-05-12T03:55:21.187Z,8.03
2018-05-12T03:57:51.149Z,9.23
2018-05-12T04:00:20.282Z,14.43
2018-05-12T04:02:49.428Z,8.83
2018-05-12T04:05:29.841Z,13.13
2018-05-12T04:08:10.208Z,11.53
2018-05-12T04:10:43.926Z,5.53
2018-05-12T04:13:12.997Z,9.03
2018-05-12T04:15:42.172Z,11.93
2018-05-12T04:18:11.216Z,11.77
2018-05-12T04:20:40.537Z,7.57
2018-05-12T04:23:09.816Z,10.23
2018-05-12T04:25:39.065Z,7.70
2018-05-12T04:28:08.373Z,8.60
2018-05-12T04:30:37.516Z,11.37
2018-05-12T04:33:06.978Z,10.57
2018-05-12T04:35:36.304Z,14.07
2018-05-12T04:38:05.589Z,9.93
2018-05-12T04:40:34.847Z,9.27
2018-05-12T04:43:04.064Z,6.67
2018-05-12T04:45:33.333Z,9.40
2018-05-12T04:48:02.569Z,10.37
2018-05-12T04:50:31.905Z,14.90
2018-05-12T04:53:00.964Z,8.23
2018-05-12T04:55:29.972Z,8.30
2018-05-12T04:57:59.024Z,10.33
2018-05-12T05:00:28.339Z,15.30
2018-05-12T05:02:57.794Z,8.23
2018-05-12T05:05:26.832Z,14.17
2018-05-12T05:07:56.295Z,13.03
2018-05-12T05:10:25.265Z,8.67
2018-05-12T05:12:54.227Z,6.60
2018-05-12T05:15:23.441Z,11.97
2018-05-12T05:17:52.561Z,7.53
2018-05-12T05:20:21.881Z,11.63
2018-05-12T05:22:51.032Z,17.90
2018-05-12T05:25:20.153Z,10.07
2018-05-12T05:27:49.216Z,9.27
2018-05-12T05:30:18.151Z,6.87
2018-05-12T05:32:47.096Z,9.70
2018-05-12T05:35:16.247Z,10.97
2018-05-12T05:37:45.476Z,12.47
2018-05-12T05:40:14.719Z,7.97
2018-05-12T05:42:43.716Z,13.23
2018-05-12T05:45:12.936Z,7.23
2018-05-12T05:47:41.876Z,10.70
2018-05-12T05:50:11.006Z,10.10
2018-05-12T05:52:40.145Z,11.10
2018-05-12T05:55:09.240Z,6.43
2018-05-12T05:57:38.589Z,11.73
2018-05-12T06:00:07.712Z,10.73
2018-05-12T06:02:36.969Z,9.37
2018-05-12T06:05:06.204Z,12.07
2018-05-12T06:07:35.691Z,9.63
2018-05-12T06:10:05.175Z,10.83
2018-05-12T06:12:34.227Z,10.33
2018-05-12T06:15:03.216Z,5.57
2018-05-12T06:17:32.218Z,7.20
2018-05-12T06:20:01.300Z,8.23
2018-05-12T06:22:30.522Z,9.00
2018-05-12T06:24:59.765Z,7.53
2018-05-12T06:27:28.877Z,8.80
2018-05-12T06:29:58.036Z,8.80
2018-05-12T06:32:27.145Z,9.27
2018-05-12T06:34:56.548Z,8.47
2018-05-12T06:37:25.541Z,10.43
2018-05-12T06:39:54.793Z,5.80
2018-05-12T06:42:24.134Z,9.77
2018-05-12T06:44:53.273Z,6.27
2018-05-12T06:47:22.425Z,7.27
2018-05-12T06:49:51.617Z,11.27
2018-05-12T06:52:20.773Z,9.73
2018-05-12T06:54:49.753Z,7.40
2018-05-12T06:57:18.780Z,6.37
2018-05-12T06:59:47.776Z,7.20
2018-05-12T07:02:16.885Z,6.40
2018-05-12T07:04:45.803Z,5.87
2018-05-12T07:07:15.053Z,10.70
2018-05-12T07:09:44.126Z,10.53
2018-05-12T07:12:13.380Z,7.33
2018-05-12T07:14:42.406Z,7.27
2018-05-12T07:17:11.444Z,6.43
2018-05-12T07:19:40.653Z,8.00
2018-05-12T07:22:09.882Z,6.13
2018-05-12T07:24:38.848Z,6.20
2018-05-12T07:27:07.884Z,7.33
2018-05-12T07:29:36.944Z,6.70
2018-05-12T07:32:05.995Z,6.67
2018-05-12T07:34:35.301Z,6.83
2018-05-12T07:37:04.899Z,7.37
2018-05-12T07:39:34.058Z,6.97
2018-05-12T07:42:03.064Z,5.87
2018-05-12T07:44:32.181Z,5.27
2018-05-12T07:47:03.082Z,4.07
2018-05-12T07:49:32.292Z,4.93
2018-05-12T07:52:01.304Z,5.90
2018-05-12T07:54:30.986Z,8.13
2018-05-12T07:57:00.092Z,5.10
2018-05-12T07:59:29.346Z,4.43
2018-05-12T08:01:58.741Z,4.67
2018-05-12T08:04:27.810Z,6.83
2018-05-12T08:06:56.915Z,6.70
2018-05-12T08:09:26.130Z,5.80
2018-05-12T08:11:55.241Z,10.70
2018-05-12T08:14:24.413Z,4.40
2018-05-12T08:16:53.608Z,9.07
2018-05-12T08:19:22.768Z,4.07
2018-05-12T08:21:51.804Z,5.40
2018-05-12T08:24:21.817Z,6.40
2018-05-12T08:26:50.917Z,9.90
2018-05-12T08:29:20.284Z,8.43
2018-05-12T08:31:49.468Z,4.67
2018-05-12T08:34:18.643Z,5.77
2018-05-12T08:36:47.860Z,10.93
2018-05-12T08:39:16.986Z,3.90
2018-05-12T08:41:46.063Z,5.07
2018-05-12T08:44:15.429Z,6.40
2018-05-12T08:46:44.468Z,5.83
2018-05-12T08:49:13.793Z,8.43
2018-05-12T08:51:42.976Z,5.77
2018-05-12T08:54:12.206Z,7.37
2018-05-12T08:56:41.540Z,6.63
2018-05-12T08:59:11.218Z,7.07
2018-05-12T09:01:40.263Z,7.43
2018-05-12T09:04:09.243Z,5.60
2018-05-12T09:06:38.631Z,6.57
2018-05-12T09:09:07.740Z,7.90
2018-05-12T09:11:37.083Z,8.07
2018-05-12T09:14:06.132Z,9.50
2018-05-12T09:16:35.347Z,10.07
2018-05-12T09:19:04.805Z,4.20
2018-05-12T09:21:33.923Z,10.00
2018-05-12T09:24:03.165Z,9.77
2018-05-12T09:26:32.365Z,12.93
2018-05-12T09:29:01.402Z,6.27
2018-05-12T09:31:30.647Z,9.60
2018-05-12T09:33:59.854Z,8.23
2018-05-12T09:36:28.877Z,6.80
2018-05-12T09:38:57.917Z,4.50
2018-05-12T09:41:27.061Z,9.33
2018-05-12T09:43:56.024Z,9.47
2018-05-12T09:46:25.085Z,8.80
2018-05-12T09:48:54.188Z,8.33
2018-05-12T09:51:23.128Z,7.43
2018-05-12T09:53:52.489Z,5.57
2018-05-12T09:56:21.508Z,9.17
2018-05-12T09:58:50.563Z,7.37
2018-05-12T10:01:19.644Z,7.73
2018-05-12T10:03:48.692Z,10.67
2018-05-12T10:06:17.902Z,7.77
2018-05-12T10:08:47.183Z,7.23
2018-05-12T10:11:16.574Z,5.37
2018-05-12T10:13:45.613Z,6.20
2018-05-12T10:16:14.885Z,5.97
2018-05-12T10:18:44.105Z,8.43
2018-05-12T10:21:13.209Z,6.13
2018-05-12T10:23:42.446Z,6.63
2018-05-12T10:26:11.468Z,8.07
2018-05-12T10:28:40.770Z,6.00
2018-05-12T10:31:09.872Z,4.97
2018-05-12T10:33:39.120Z,13.30
2018-05-12T10:36:08.264Z,10.63
2018-05-12T10:38:37.661Z,6.73
2018-05-12T10:41:06.794Z,4.53
2018-05-12T10:43:35.933Z,5.50
2018-05-12T10:46:05.034Z,7.03
2018-05-12T10:48:34.037Z,8.53
2018-05-12T10:51:03.362Z,7.27
2018-05-12T10:53:32.484Z,4.53
2018-05-12T10:56:01.467Z,10.03
2018-05-12T10:58:30.476Z,7.17
2018-05-12T11:00:59.585Z,6.27
2018-05-12T11:03:28.580Z,7.67
2018-05-12T11:05:57.737Z,9.87
2018-05-12T11:08:26.707Z,8.60
2018-05-12T11:10:55.696Z,9.00
2018-05-12T11:13:24.716Z,5.70
2018-05-12T11:15:53.678Z,9.37
2018-05-12T11:18:22.740Z,5.57
2018-05-12T11:20:51.776Z,6.57
2018-05-12T11:23:20.902Z,3.80
2018-05-12T11:25:49.901Z,7.97
2018-05-12T11:28:18.848Z,5.33
2018-05-12T11:30:47.896Z,5.30
2018-05-12T11:33:16.852Z,10.53
2018-05-12T11:35:45.927Z,5.00
2018-05-12T11:38:15.101Z,5.73
2018-05-12T11:40:44.623Z,8.13
2018-05-12T11:43:14.070Z,7.87
2018-05-12T11:45:43.226Z,7.33
2018-05-12T11:48:12.136Z,5.30
2018-05-12T11:50:41.226Z,7.73
2018-05-12T11:53:10.472Z,7.67
2018-05-12T11:55:40.530Z,9.70
2018-05-12T11:58:09.515Z,4.67
2018-05-12T12:00:38.504Z,9.00
2018-05-12T12:03:07.564Z,8.50
2018-05-12T12:05:36.576Z,7.23
2018-05-12T12:08:05.930Z,7.00
2018-05-12T12:10:35.111Z,7.40
2018-05-12T12:13:04.112Z,6.87
2018-05-12T12:15:33.187Z,3.50
2018-05-12T12:18:03.103Z,5.57
2018-05-12T12:20:32.169Z,3.90
2018-05-12T12:23:01.490Z,4.80
2018-05-12T12:25:30.754Z,5.50
2018-05-12T12:27:59.928Z,5.37
2018-05-12T12:30:29.056Z,5.37
2018-05-12T12:32:58.204Z,5.20
2018-05-12T12:35:27.542Z,7.20
2018-05-12T12:37:56.568Z,7.83
2018-05-12T12:40:25.998Z,6.87
2018-05-12T12:42:55.048Z,10.60
2018-05-12T12:45:24.136Z,3.63
2018-05-12T12:47:53.101Z,3.77
2018-05-12T12:50:22.212Z,7.83
2018-05-12T12:52:51.382Z,4.50
2018-05-12T12:55:20.483Z,5.97
2018-05-12T12:57:49.631Z,5.80
2018-05-12T13:00:18.868Z,7.47
2018-05-12T13:02:48.046Z,9.53
2018-05-12T13:05:17.064Z,3.73
2018-05-12T13:07:46.280Z,7.97
2018-05-12T13:10:15.305Z,6.93
2018-05-12T13:12:45.321Z,4.30
2018-05-12T13:15:15.502Z,11.20
2018-05-12T13:17:44.490Z,5.33
2018-05-12T13:20:13.516Z,4.10
2018-05-12T13:22:42.613Z,6.27
2018-05-12T13:25:12.057Z,5.80
2018-05-12T13:27:41.028Z,4.63
2018-05-12T13:30:10.281Z,3.27
2018-05-12T13:32:39.314Z,5.70
2018-05-12T13:35:08.411Z,3.83
2018-05-12T13:37:37.663Z,3.00
2018-05-12T13:40:06.708Z,4.50
2018-05-12T13:42:35.772Z,4.93
2018-05-12T13:45:04.985Z,7.83
2018-05-12T13:47:34.217Z,5.57
2018-05-12T13:50:03.420Z,4.43
2018-05-12T13:52:32.641Z,6.00
2018-05-12T13:55:01.636Z,5.90
2018-05-12T13:57:30.873Z,8.17
2018-05-12T14:00:00.013Z,6.90
2018-05-12T14:02:29.122Z,3.70
2018-05-12T14:04:58.124Z,6.53
2018-05-12T14:07:27.485Z,7.83
2018-05-12T14:09:56.740Z,6.00
2018-05-12T14:12:25.717Z,4.53
2018-05-12T14:14:54.917Z,4.23
2018-05-12T14:17:24.245Z,3.13
2018-05-12T14:19:53.558Z,5.83
2018-05-12T14:22:22.718Z,6.30
2018-05-12T14:24:52.046Z,6.43
2018-05-12T14:27:21.128Z,4.37
2018-05-12T14:29:50.591Z,3.77
2018-05-12T14:32:19.675Z,4.40
2018-05-12T14:34:48.934Z,3.87
2018-05-12T14:37:18.223Z,6.33
2018-05-12T14:39:47.603Z,7.37
2018-05-12T14:42:16.727Z,4.70
2018-05-12T14:44:45.880Z,4.70
2018-05-12T14:47:14.989Z,9.60
2018-05-12T14:49:44.028Z,5.33
2018-05-12T14:52:13.040Z,5.70
2018-05-12T14:54:42.188Z,14.00
2018-05-12T14:57:12.248Z,8.43
2018-05-12T14:59:41.956Z,6.00
2018-05-12T15:02:11.703Z,8.03
2018-05-12T15:04:40.638Z,5.13
2018-05-12T15:07:09.908Z,8.30
2018-05-12T15:09:39.168Z,5.37
2018-05-12T15:12:08.338Z,4.33
2018-05-12T15:14:37.470Z,8.73
2018-05-12T15:17:06.735Z,4.93
2018-05-12T15:19:35.723Z,6.57
2018-05-12T15:22:04.926Z,4.73
2018-05-12T15:24:34.197Z,6.33
2018-05-12T15:27:03.354Z,6.47
2018-05-12T15:29:32.859Z,5.43
2018-05-12T15:32:01.884Z,6.43
2018-05-12T15:34:31.032Z,6.93
2018-05-12T15:37:00.052Z,6.70
2018-05-12T15:39:30.017Z,7.63
2018-05-12T15:41:59.447Z,8.40
2018-05-12T15:44:28.576Z,7.20
2018-05-12T15:46:57.779Z,6.90
2018-05-12T15:49:26.872Z,6.23
2018-05-12T15:51:56.133Z,5.60
2018-05-12T15:54:25.175Z,6.83
2018-05-12T15:56:54.593Z,8.50
2018-05-12T15:59:23.930Z,5.20
2018-05-12T16:01:53.258Z,7.37
2018-05-12T16:04:22.539Z,6.07
2018-05-12T16:06:51.676Z,7.13
2018-05-12T16:09:20.833Z,5.73
2018-05-12T16:11:49.979Z,4.40
2018-05-12T16:14:19.120Z,4.17
2018-05-12T16:16:48.265Z,5.33
2018-05-12T16:19:17.472Z,4.67
2018-05-12T16:21:46.488Z,6.30
2018-05-12T16:24:15.620Z,8.10
2018-05-12T16:26:44.651Z,9.33
2018-05-12T16:29:13.939Z,8.07
2018-05-12T16:31:43.198Z,5.93
2018-05-12T16:34:12.538Z,8.17
2018-05-12T16:36:41.504Z,12.13
2018-05-12T16:39:10.599Z,9.20
2018-05-12T16:41:39.973Z,8.10
2018-05-12T16:44:09.382Z,4.77
2018-05-12T16:46:38.434Z,10.70
2018-05-12T16:49:07.668Z,8.40
2018-05-12T16:51:36.851Z,5.90
2018-05-12T16:54:05.996Z,7.07
2018-05-12T16:56:35.108Z,8.27
2018-05-12T16:59:04.301Z,6.87
2018-05-12T17:01:33.496Z,8.63
2018-05-12T17:04:02.545Z,8.07
2018-05-12T17:06:32.019Z,6.77
2018-05-12T17:09:01.221Z,8.90
2018-05-12T17:11:30.440Z,10.80
2018-05-12T17:13:59.550Z,5.90
2018-05-12T17:16:28.692Z,6.60
2018-05-12T17:18:57.853Z,6.03
2018-05-12T17:21:27.264Z,7.20
2018-05-12T17:23:56.493Z,5.70
2018-05-12T17:26:25.668Z,7.87
2018-05-12T17:28:54.837Z,4.83
2018-05-12T17:31:24.522Z,8.73
2018-05-12T17:33:53.692Z,9.43
2018-05-12T17:36:22.883Z,6.43
2018-05-12T17:38:51.973Z,6.20
2018-05-12T17:41:21.076Z,6.83
2018-05-12T17:43:50.331Z,6.87
2018-05-12T17:46:19.532Z,6.57
2018-05-12T17:48:48.635Z,8.37
2018-05-12T17:51:17.739Z,8.83
2018-05-12T17:53:47.107Z,4.90
2018-05-12T17:56:16.073Z,11.27
2018-05-12T17:58:45.281Z,5.67
2018-05-12T18:01:14.372Z,6.57
2018-05-12T18:03:43.804Z,4.10
2018-05-12T18:06:13.025Z,7.00
2018-05-12T18:08:41.804Z,7.33
2018-05-12T18:11:10.987Z,10.40
2018-05-12T18:13:40.066Z,5.50
2018-05-12T18:16:09.044Z,7.30
2018-05-12T18:18:38.040Z,6.63
2018-05-12T18:21:06.982Z,8.00
2018-05-12T18:23:35.939Z,7.20
2018-05-12T18:26:05.920Z,6.43
2018-05-12T18:28:34.956Z,9.67
2018-05-12T18:31:04.024Z,12.00
2018-05-12T18:33:32.877Z,10.27
2018-05-12T18:36:02.100Z,7.67
2018-05-12T18:38:31.267Z,8.20
2018-05-12T18:41:00.228Z,9.97
2018-05-12T18:43:29.195Z,12.13
2018-05-12T18:45:58.049Z,8.63
2018-05-12T18:48:27.398Z,8.07
2018-05-12T18:50:56.232Z,9.00
2018-05-12T18:53:25.520Z,12.03
2018-05-12T18:55:54.365Z,9.00
2018-05-12T18:58:23.226Z,9.77
2018-05-12T19:00:52.175Z,10.17
2018-05-12T19:03:21.067Z,6.43
2018-05-12T19:05:49.900Z,10.10
2018-05-12T19:08:19.451Z,7.27
2018-05-12T19:10:49.232Z,5.93
2018-05-12T19:13:18.066Z,11.57
2018-05-12T19:15:47.294Z,11.63
2018-05-12T19:18:16.212Z,8.03
2018-05-12T19:20:45.257Z,11.00
2018-05-12T19:23:14.548Z,8.53
2018-05-12T19:25:44.162Z,10.90
2018-05-12T19:28:13.263Z,10.00
2018-05-12T19:30:42.241Z,10.00
2018-05-12T19:33:11.044Z,9.50
2018-05-12T19:35:40.140Z,7.23
2018-05-12T19:38:08.981Z,10.27
2018-05-12T19:40:38.913Z,9.90
2018-05-12T19:43:07.843Z,7.93
2018-05-12T19:45:36.875Z,8.17
2018-05-12T19:48:05.676Z,5.90
2018-05-12T19:50:35.068Z,10.27
2018-05-12T19:53:04.266Z,10.40
2018-05-12T19:55:33.364Z,7.73
2018-05-12T19:58:02.425Z,9.73
2018-05-12T20:00:31.508Z,10.50
2018-05-12T20:03:00.316Z,8.20
2018-05-12T20:05:29.317Z,10.30
2018-05-12T20:07:58.209Z,6.67
2018-05-12T20:10:27.752Z,9.27
2018-05-12T20:12:56.853Z,12.07
2018-05-12T20:15:26.147Z,9.93
2018-05-12T20:17:55.000Z,15.57
2018-05-12T20:20:23.951Z,17.97
2018-05-12T20:22:52.840Z,14.23
2018-05-12T20:25:21.671Z,12.13
2018-05-12T20:27:50.866Z,11.53
2018-05-12T20:30:19.790Z,12.03
2018-05-12T20:32:48.709Z,17.67
2018-05-12T20:35:17.592Z,12.87
2018-05-12T20:37:46.798Z,12.43
2018-05-12T20:40:15.632Z,11.53
2018-05-12T20:42:44.816Z,14.87
2018-05-12T20:45:13.942Z,11.57
2018-05-12T20:47:42.848Z,13.93
2018-05-12T20:50:11.998Z,13.13
2018-05-12T20:52:41.065Z,11.47
2018-05-12T20:55:09.944Z,10.17
2018-05-12T20:57:38.818Z,12.70
2018-05-12T21:00:08.008Z,13.63
2018-05-12T21:02:37.774Z,19.93
2018-05-12T21:05:06.797Z,12.47
2018-05-12T21:07:35.603Z,8.10
2018-05-12T21:10:04.448Z,9.53
2018-05-12T21:12:34.081Z,7.80
2018-05-12T21:15:03.786Z,13.03
2018-05-12T21:17:33.128Z,9.87
2018-05-12T21:20:02.030Z,7.63
2018-05-12T21:22:31.425Z,9.37
2018-05-12T21:25:00.240Z,9.57
2018-05-12T21:27:29.016Z,13.77
2018-05-12T21:29:57.936Z,9.83
2018-05-12T21:32:27.382Z,9.90
2018-05-12T21:34:56.182Z,11.17
2018-05-12T21:37:25.339Z,15.57
2018-05-12T21:39:54.656Z,11.10
2018-05-12T21:42:23.447Z,13.60
2018-05-12T21:44:52.444Z,19.17
2018-05-12T21:47:21.792Z,11.33
2018-05-12T21:49:50.664Z,9.57
2018-05-12T21:52:19.599Z,12.87
2018-05-12T21:54:48.565Z,11.67
2018-05-12T21:57:17.496Z,8.87
2018-05-12T21:59:46.716Z,12.07
2018-05-12T22:02:15.600Z,10.60
2018-05-12T22:04:44.407Z,12.27
2018-05-12T22:07:13.427Z,9.30
2018-05-12T22:09:42.613Z,10.63
2018-05-12T22:12:11.536Z,24.37
2018-05-12T22:14:40.556Z,10.50
2018-05-12T22:17:09.680Z,12.40
2018-05-12T22:19:38.822Z,10.17
2018-05-12T22:22:07.838Z,10.23
2018-05-12T22:24:37.074Z,10.07
2018-05-12T22:27:06.820Z,10.03
2018-05-12T22:29:35.796Z,12.00
2018-05-12T22:32:04.792Z,11.70
2018-05-12T22:34:33.909Z,10.67
2018-05-12T22:37:02.868Z,9.93
2018-05-12T22:39:31.853Z,10.20
2018-05-12T22:42:00.774Z,10.60
2018-05-12T22:44:30.149Z,8.97
2018-05-12T22:46:59.124Z,9.13
2018-05-12T22:49:28.218Z,10.50
2018-05-12T22:51:57.529Z,14.07
2018-05-12T22:54:26.464Z,8.97
2018-05-12T22:56:56.215Z,10.70
2018-05-12T22:59:25.089Z,10.40
2018-05-12T23:01:54.292Z,11.37
2018-05-12T23:04:23.454Z,13.17
2018-05-12T23:06:53.285Z,10.60
2018-05-12T23:09:23.248Z,12.83
2018-05-12T23:11:52.783Z,12.27
2018-05-12T23:14:22.048Z,10.73
2018-05-12T23:16:51.248Z,10.73
2018-05-12T23:19:20.613Z,12.23
2018-05-12T23:21:50.150Z,10.43
2018-05-12T23:24:19.253Z,10.67
2018-05-12T23:26:48.386Z,11.57
2018-05-12T23:29:17.612Z,10.10
2018-05-12T23:31:46.756Z,11.00
2018-05-12T23:34:16.177Z,11.30
2018-05-12T23:36:45.315Z,12.27
2018-05-12T23:39:14.356Z,10.80
2018-05-12T23:41:43.645Z,11.23
2018-05-12T23:44:12.704Z,15.03
2018-05-12T23:46:41.744Z,10.90
2018-05-12T23:49:11.029Z,16.13
2018-05-12T23:51:40.324Z,11.47
2018-05-12T23:54:09.523Z,9.57
2018-05-12T23:56:38.524Z,12.03
2018-05-12T23:59:08.338Z,11.40
